createdAt,value
2022-11-02T00:01:43.433Z,100.00
2022-11-02T00:04:28.906Z,100.00
2022-11-02T00:07:13.907Z,100.00
2022-11-02T00:09:58.800Z,100.00
2022-11-02T00:12:44.159Z,100.00
2022-11-02T00:15:32.460Z,100.00
2022-11-02T00:18:17.533Z,100.00
2022-11-02T00:21:04.468Z,100.00
2022-11-02T00:23:50.297Z,100.00
2022-11-02T00:26:36.428Z,100.00
2022-11-02T00:29:23.464Z,100.00
2022-11-02T00:32:08.425Z,100.00
2022-11-02T00:34:53.562Z,100.00
2022-11-02T00:37:38.842Z,100.00
2022-11-02T00:40:23.885Z,100.00
2022-11-02T00:43:08.865Z,100.00
2022-11-02T00:45:53.828Z,100.00
2022-11-02T00:48:38.687Z,100.00
2022-11-02T00:51:23.788Z,100.00
2022-11-02T00:54:08.814Z,100.00
2022-11-02T00:56:54.106Z,100.00
2022-11-02T00:59:38.941Z,100.00
2022-11-02T01:02:23.834Z,100.00
2022-11-02T01:05:10.294Z,100.00
2022-11-02T01:07:55.227Z,100.00
2022-11-02T01:10:44.038Z,100.00
2022-11-02T01:13:32.046Z,100.00
2022-11-02T01:16:16.959Z,100.00
2022-11-02T01:19:02.282Z,100.00
2022-11-02T01:21:47.273Z,100.00
2022-11-02T01:24:32.498Z,100.00
2022-11-02T01:27:17.303Z,100.00
2022-11-02T01:30:04.076Z,100.00
2022-11-02T01:32:49.044Z,100.00
2022-11-02T01:35:34.025Z,100.00
2022-11-02T01:38:19.081Z,100.00
2022-11-02T01:41:04.424Z,100.00
2022-11-02T01:43:53.800Z,100.00
2022-11-02T01:46:42.927Z,100.00
2022-11-02T01:49:31.272Z,100.00
2022-11-02T01:52:23.714Z,100.00
2022-11-02T01:55:31.252Z,100.00
2022-11-02T01:58:16.368Z,100.00
2022-11-02T02:01:01.678Z,100.00
2022-11-02T02:03:48.389Z,100.00
2022-11-02T02:06:33.586Z,100.00
2022-11-02T02:09:20.733Z,100.00
2022-11-02T02:12:06.307Z,100.00
2022-11-02T02:14:52.500Z,100.00
2022-11-02T02:17:56.250Z,100.00
2022-11-02T02:20:44.198Z,100.00
2022-11-02T02:23:35.094Z,100.00
2022-11-02T02:26:44.920Z,100.00
2022-11-02T02:29:34.488Z,100.00
2022-11-02T02:32:22.597Z,100.00
2022-11-02T02:35:16.939Z,100.00
2022-11-02T02:38:05.777Z,100.00
2022-11-02T02:41:11.562Z,100.00
2022-11-02T02:44:00.438Z,100.00
2022-11-02T02:46:53.563Z,100.00
2022-11-02T02:49:48.145Z,100.00
2022-11-02T02:52:37.545Z,100.00
2022-11-02T02:55:29.849Z,100.00
2022-11-02T02:58:32.942Z,100.00
2022-11-02T03:01:19.810Z,100.00
2022-11-02T03:04:04.836Z,100.00
2022-11-02T03:06:54.611Z,100.00
2022-11-02T03:09:41.155Z,100.00
2022-11-02T03:12:53.208Z,100.00
2022-11-02T03:15:44.864Z,100.00
2022-11-02T03:18:53.089Z,100.00
2022-11-02T03:21:44.071Z,100.00
2022-11-02T03:24:45.650Z,100.00
2022-11-02T03:27:40.378Z,100.00
2022-11-02T03:30:29.744Z,100.00
2022-11-02T03:33:30.679Z,100.00
2022-11-02T03:36:23.785Z,100.00
2022-11-02T03:39:11.510Z,100.00
2022-11-02T03:42:01.760Z,100.00
2022-11-02T03:44:49.948Z,100.00
2022-11-02T03:47:37.375Z,100.00
2022-11-02T03:50:24.018Z,100.00
2022-11-02T03:53:37.789Z,100.00
2022-11-02T03:56:35.695Z,100.00
2022-11-02T03:59:20.636Z,100.00
2022-11-02T04:02:10.088Z,100.00
2022-11-02T04:04:55.768Z,100.00
2022-11-02T04:08:03.931Z,100.00
2022-11-02T04:11:08.796Z,100.00
2022-11-02T04:14:12.705Z,100.00
2022-11-02T04:17:16.619Z,100.00
2022-11-02T04:20:01.773Z,100.00
2022-11-02T04:23:05.312Z,100.00
2022-11-02T04:25:56.570Z,100.00
2022-11-02T04:28:41.480Z,100.00
2022-11-02T04:31:26.388Z,100.00
2022-11-02T04:34:11.624Z,100.00
2022-11-02T04:36:56.581Z,100.00
2022-11-02T04:39:41.558Z,100.00
2022-11-02T04:42:26.491Z,100.00
2022-11-02T04:45:11.395Z,100.00
2022-11-02T04:48:06.227Z,100.00
2022-11-02T04:50:51.595Z,100.00
2022-11-02T04:53:36.531Z,100.00
2022-11-02T04:56:22.261Z,100.00
2022-11-02T04:59:07.241Z,100.00
2022-11-02T05:01:52.348Z,100.00
2022-11-02T05:04:37.608Z,100.00
2022-11-02T05:07:22.587Z,100.00
2022-11-02T05:10:08.495Z,100.00
2022-11-02T05:13:00.639Z,100.00
2022-11-02T05:15:45.575Z,100.00
2022-11-02T05:18:31.341Z,100.00
2022-11-02T05:21:16.474Z,100.00
2022-11-02T05:24:01.573Z,100.00
2022-11-02T05:26:52.817Z,100.00
2022-11-02T05:29:39.091Z,100.00
2022-11-02T05:32:24.113Z,100.00
2022-11-02T05:35:09.476Z,100.00
2022-11-02T05:37:57.890Z,100.00
2022-11-02T05:40:42.978Z,100.00
2022-11-02T05:43:28.184Z,100.00
2022-11-02T05:46:16.264Z,100.00
2022-11-02T05:49:01.330Z,100.00
2022-11-02T05:51:46.169Z,100.00
2022-11-02T05:54:31.463Z,100.00
2022-11-02T05:57:17.152Z,100.00
2022-11-02T06:00:03.910Z,100.00
2022-11-02T06:02:55.046Z,100.00
2022-11-02T06:05:40.114Z,100.00
2022-11-02T06:08:25.910Z,100.00
2022-11-02T06:11:13.001Z,100.00
2022-11-02T06:13:58.311Z,100.00
2022-11-02T06:16:43.292Z,100.00
2022-11-02T06:19:28.218Z,100.00
2022-11-02T06:22:13.157Z,100.00
2022-11-02T06:24:58.197Z,100.00
2022-11-02T06:27:55.009Z,100.00
2022-11-02T06:30:40.123Z,100.00
2022-11-02T06:33:24.998Z,100.00
2022-11-02T06:36:10.442Z,100.00
2022-11-02T06:38:55.680Z,100.00
2022-11-02T06:41:41.008Z,100.00
2022-11-02T06:44:25.980Z,100.00
2022-11-02T06:47:11.000Z,100.00
2022-11-02T06:49:56.342Z,100.00
2022-11-02T06:52:46.750Z,100.00
2022-11-02T06:55:31.666Z,100.00
2022-11-02T06:58:16.842Z,100.00
2022-11-02T07:01:04.493Z,100.00
2022-11-02T07:03:49.530Z,100.00
2022-11-02T07:06:34.539Z,100.00
2022-11-02T07:09:19.660Z,100.00
2022-11-02T07:12:05.447Z,100.00
2022-11-02T07:14:50.324Z,100.00
2022-11-02T07:17:39.316Z,100.00
2022-11-02T07:20:24.903Z,100.00
2022-11-02T07:23:10.392Z,100.00
2022-11-02T07:25:55.598Z,100.00
2022-11-02T07:28:40.731Z,100.00
2022-11-02T07:31:26.056Z,100.00
2022-11-02T07:34:16.734Z,100.00
2022-11-02T07:37:02.157Z,100.00
2022-11-02T07:39:47.057Z,100.00
2022-11-02T07:42:33.023Z,100.00
2022-11-02T07:45:18.326Z,100.00
2022-11-02T07:48:03.558Z,100.00
2022-11-02T07:50:48.723Z,100.00
2022-11-02T07:53:34.522Z,100.00
2022-11-02T07:56:19.540Z,100.00
2022-11-02T07:59:04.602Z,100.00
2022-11-02T08:01:49.684Z,100.00
2022-11-02T08:04:34.385Z,100.00
2022-11-02T08:07:19.436Z,100.00
2022-11-02T08:10:04.523Z,100.00
2022-11-02T08:12:49.656Z,100.00
2022-11-02T08:15:34.749Z,100.00
2022-11-02T08:18:23.275Z,100.00
2022-11-02T08:21:08.439Z,100.00
2022-11-02T08:23:58.538Z,100.00
2022-11-02T08:26:45.392Z,100.00
2022-11-02T08:29:31.861Z,100.00
2022-11-02T08:32:16.849Z,100.00
2022-11-02T08:35:01.653Z,100.00
2022-11-02T08:37:54.900Z,100.00
2022-11-02T08:40:40.482Z,100.00
2022-11-02T08:43:25.850Z,100.00
2022-11-02T08:46:15.756Z,100.00
2022-11-02T08:49:02.134Z,100.00
2022-11-02T08:51:47.519Z,100.00
2022-11-02T08:54:32.595Z,100.00
2022-11-02T08:57:17.739Z,100.00
2022-11-02T09:00:02.661Z,100.00
2022-11-02T09:03:09.307Z,100.00
2022-11-02T09:06:02.464Z,100.00
2022-11-02T09:08:47.750Z,100.00
2022-11-02T09:11:33.004Z,100.00
2022-11-02T09:14:18.090Z,100.00
2022-11-02T09:17:03.332Z,100.00
2022-11-02T09:19:48.115Z,100.00
2022-11-02T09:22:33.189Z,100.00
2022-11-02T09:25:18.615Z,100.00
2022-11-02T09:28:04.057Z,100.00
2022-11-02T09:30:49.510Z,100.00
2022-11-02T09:33:36.138Z,100.00
2022-11-02T09:36:21.527Z,100.00
2022-11-02T09:39:06.559Z,100.00
2022-11-02T09:42:07.837Z,100.00
2022-11-02T09:44:58.930Z,100.00
2022-11-02T09:48:16.118Z,100.00
2022-11-02T09:51:03.314Z,100.00
2022-11-02T09:53:59.757Z,100.00
2022-11-02T09:56:45.759Z,100.00
2022-11-02T09:59:31.044Z,99.77
2022-11-02T10:02:26.031Z,99.74
2022-11-02T10:05:48.971Z,98.11
2022-11-02T10:08:55.792Z,97.49
2022-11-02T10:12:12.950Z,97.71
2022-11-02T10:15:19.682Z,98.61
2022-11-02T10:18:06.390Z,98.83
2022-11-02T10:20:55.018Z,98.69
2022-11-02T10:23:46.019Z,99.83
2022-11-02T10:26:34.450Z,100.00
2022-11-02T10:29:22.563Z,100.00
2022-11-02T10:32:13.044Z,100.00
2022-11-02T10:35:17.442Z,100.00
2022-11-02T10:38:15.168Z,100.00
2022-11-02T10:41:21.958Z,100.00
2022-11-02T10:44:24.449Z,100.00
2022-11-02T10:47:21.811Z,100.00
2022-11-02T10:50:30.907Z,100.00
2022-11-02T10:53:40.119Z,100.00
2022-11-02T10:56:29.379Z,100.00
2022-11-02T10:59:23.754Z,100.00
2022-11-02T11:02:14.504Z,100.00
2022-11-02T11:05:19.678Z,100.00
2022-11-02T11:08:06.727Z,100.00
2022-11-02T11:10:52.050Z,98.21
2022-11-02T11:16:50.214Z,92.66
2022-11-02T11:19:40.120Z,92.18
2022-11-02T11:22:26.125Z,91.83
2022-11-02T11:25:25.872Z,87.49
2022-11-02T11:28:42.645Z,86.43
2022-11-02T11:31:27.670Z,84.78
2022-11-02T11:34:25.037Z,86.16
2022-11-02T11:37:14.125Z,85.93
2022-11-02T11:40:07.340Z,85.07
2022-11-02T11:43:00.059Z,84.71
2022-11-02T11:46:05.948Z,83.27
2022-11-02T11:48:55.815Z,83.29
2022-11-02T11:51:45.123Z,83.42
2022-11-02T11:54:31.955Z,82.74
2022-11-02T11:57:22.871Z,82.34
2022-11-02T12:00:28.812Z,80.98
2022-11-02T12:03:16.192Z,80.42
2022-11-02T12:06:24.451Z,79.83
2022-11-02T12:09:25.193Z,80.33
2022-11-02T12:12:29.158Z,80.92
2022-11-02T12:15:14.460Z,80.86
2022-11-02T12:18:05.656Z,81.86
2022-11-02T12:21:18.117Z,81.92
2022-11-02T12:24:20.534Z,81.39
2022-11-02T12:27:15.800Z,81.49
2022-11-02T12:30:12.359Z,81.49
2022-11-02T12:33:06.348Z,80.78
2022-11-02T12:36:12.553Z,81.07
2022-11-02T12:39:03.682Z,81.59
2022-11-02T12:42:16.816Z,81.67
2022-11-02T12:45:20.213Z,81.48
2022-11-02T12:48:06.026Z,82.19
2022-11-02T12:51:00.788Z,82.11
2022-11-02T12:53:57.608Z,80.63
2022-11-02T12:56:49.266Z,80.05
2022-11-02T12:59:34.671Z,78.99
2022-11-02T13:02:31.615Z,78.02
2022-11-02T13:05:23.899Z,78.97
2022-11-02T13:08:08.880Z,79.62
2022-11-02T13:11:00.700Z,79.72
2022-11-02T13:13:50.920Z,79.96
2022-11-02T13:16:46.816Z,79.97
2022-11-02T13:19:42.806Z,80.40
2022-11-02T13:22:38.562Z,80.09
2022-11-02T13:25:31.435Z,81.10
2022-11-02T13:28:24.635Z,80.83
2022-11-02T13:31:38.841Z,81.45
2022-11-02T13:34:41.168Z,80.97
2022-11-02T13:37:34.666Z,80.75
2022-11-02T13:40:52.423Z,80.98
2022-11-02T13:44:14.440Z,81.87
2022-11-02T13:47:20.257Z,82.23
2022-11-02T13:50:12.035Z,82.86
2022-11-02T13:53:02.863Z,82.60
2022-11-02T13:55:54.450Z,83.69
2022-11-02T13:58:48.538Z,83.76
2022-11-02T14:01:36.592Z,84.17
2022-11-02T14:04:22.275Z,83.82
2022-11-02T14:07:28.837Z,83.45
2022-11-02T14:10:18.843Z,83.37
2022-11-02T14:13:04.720Z,82.25
2022-11-02T14:15:53.009Z,82.43
2022-11-02T14:18:37.880Z,82.73
2022-11-02T14:21:44.265Z,82.73
2022-11-02T14:24:32.378Z,82.98
2022-11-02T14:27:18.983Z,83.54
2022-11-02T14:30:04.662Z,84.21
2022-11-02T14:33:02.364Z,84.43
2022-11-02T14:36:00.291Z,85.13
2022-11-02T14:39:19.926Z,84.99
2022-11-02T14:42:10.636Z,85.59
2022-11-02T14:45:26.854Z,85.31
2022-11-02T14:48:16.116Z,85.45
2022-11-02T14:51:05.845Z,86.02
2022-11-02T14:54:02.662Z,86.13
2022-11-02T14:56:53.005Z,86.80
2022-11-02T14:59:40.679Z,86.88
2022-11-02T15:02:32.075Z,87.49
2022-11-02T15:05:26.612Z,87.98
2022-11-02T15:08:14.752Z,88.27
2022-11-02T15:10:59.850Z,88.58
2022-11-02T15:13:48.496Z,88.61
2022-11-02T15:16:42.404Z,88.41
2022-11-02T15:19:41.247Z,87.72
2022-11-02T15:22:35.145Z,87.42
2022-11-02T15:25:31.311Z,87.50
2022-11-02T15:28:22.361Z,86.89
2022-11-02T15:31:16.921Z,86.98
2022-11-02T15:34:11.501Z,86.11
2022-11-02T15:36:57.630Z,85.33
2022-11-02T15:39:51.665Z,84.83
2022-11-02T15:43:10.143Z,84.92
2022-11-02T15:46:09.601Z,84.90
2022-11-02T15:49:08.590Z,84.28
2022-11-02T15:52:08.308Z,84.46
2022-11-02T15:55:16.165Z,84.91
2022-11-02T15:58:17.201Z,85.06
2022-11-02T16:01:11.509Z,84.92
2022-11-02T16:04:02.283Z,85.01
2022-11-02T16:06:49.432Z,85.55
2022-11-02T16:09:38.369Z,85.91
2022-11-02T16:12:24.760Z,85.60
2022-11-02T16:15:12.507Z,85.66
2022-11-02T16:17:58.424Z,85.80
2022-11-02T16:20:45.216Z,86.21
2022-11-02T16:23:33.201Z,86.54
2022-11-02T16:26:22.349Z,86.77
2022-11-02T16:29:08.864Z,87.19
2022-11-02T16:31:54.164Z,87.76
2022-11-02T16:34:39.947Z,88.16
2022-11-02T16:37:25.275Z,88.55
2022-11-02T16:40:17.354Z,88.86
2022-11-02T16:43:02.428Z,89.52
2022-11-02T16:45:50.188Z,89.75
2022-11-02T16:48:35.716Z,90.25
2022-11-02T16:51:21.121Z,90.53
2022-11-02T16:54:25.769Z,90.71
2022-11-02T16:57:12.097Z,91.04
2022-11-02T17:00:29.675Z,91.22
2022-11-02T17:03:16.336Z,91.52
2022-11-02T17:06:06.774Z,91.83
2022-11-02T17:08:55.151Z,91.98
2022-11-02T17:11:43.271Z,91.68
2022-11-02T17:14:28.863Z,91.75
2022-11-02T17:17:23.278Z,92.06
2022-11-02T17:20:18.023Z,92.34
2022-11-02T17:23:28.604Z,92.60
2022-11-02T17:26:23.328Z,93.13
2022-11-02T17:29:26.819Z,93.30
2022-11-02T17:32:16.897Z,92.99
2022-11-02T17:35:04.601Z,92.75
2022-11-02T17:37:49.874Z,92.91
2022-11-02T17:40:35.133Z,92.93
2022-11-02T17:43:21.800Z,93.08
2022-11-02T17:46:08.590Z,93.51
2022-11-02T17:48:53.467Z,93.86
2022-11-02T17:51:39.119Z,93.97
2022-11-02T17:54:24.904Z,94.04
2022-11-02T17:57:13.332Z,94.55
2022-11-02T17:59:58.762Z,94.95
2022-11-02T18:02:47.929Z,95.24
2022-11-02T18:05:37.522Z,95.59
2022-11-02T18:08:22.815Z,95.95
2022-11-02T18:11:09.050Z,96.03
2022-11-02T18:13:54.171Z,96.22
2022-11-02T18:16:39.115Z,96.57
2022-11-02T18:19:24.203Z,96.79
2022-11-02T18:22:12.121Z,96.76
2022-11-02T18:24:57.264Z,96.77
2022-11-02T18:27:42.223Z,96.59
2022-11-02T18:30:28.891Z,96.57
2022-11-02T18:33:14.447Z,97.06
2022-11-02T18:37:15.849Z,97.78
2022-11-02T18:40:36.296Z,98.55
2022-11-02T18:43:21.394Z,99.16
2022-11-02T18:46:06.388Z,99.87
2022-11-02T18:48:51.845Z,100.00
2022-11-02T18:55:03.179Z,100.00
2022-11-02T18:57:54.608Z,100.00
2022-11-02T19:00:43.297Z,100.00
2022-11-02T19:03:28.862Z,100.00
2022-11-02T19:06:32.500Z,100.00
2022-11-02T19:22:38.257Z,100.00
2022-11-02T19:25:23.381Z,100.00
2022-11-02T19:28:08.577Z,100.00
2022-11-02T19:30:54.231Z,100.00
2022-11-02T19:33:39.386Z,100.00
2022-11-02T19:36:25.177Z,100.00
2022-11-02T19:39:10.563Z,100.00
2022-11-02T19:41:55.392Z,100.00
2022-11-02T19:44:42.757Z,100.00
2022-11-02T19:47:28.344Z,100.00
2022-11-02T19:50:13.538Z,100.00
2022-11-02T19:53:00.002Z,100.00
2022-11-02T19:55:54.559Z,100.00
2022-11-02T19:58:41.706Z,100.00
2022-11-02T20:01:29.538Z,100.00
2022-11-02T20:04:14.806Z,100.00
2022-11-02T20:07:00.160Z,100.00
2022-11-02T20:09:45.541Z,100.00
2022-11-02T20:12:33.395Z,100.00
2022-11-02T20:15:18.740Z,100.00
2022-11-02T20:18:18.969Z,100.00
2022-11-02T20:21:20.422Z,100.00
2022-11-02T20:24:06.266Z,100.00
2022-11-02T20:26:56.052Z,100.00
2022-11-02T20:29:41.171Z,100.00
2022-11-02T20:32:26.415Z,100.00
2022-11-02T20:35:13.820Z,100.00
2022-11-02T20:37:59.270Z,100.00
2022-11-02T20:40:44.448Z,100.00
2022-11-02T20:43:29.709Z,100.00
2022-11-02T20:46:36.603Z,100.00
2022-11-02T20:49:44.376Z,100.00
2022-11-02T20:52:27.915Z,100.00
2022-11-02T20:55:12.728Z,100.00
2022-11-02T20:57:57.751Z,100.00
2022-11-02T21:00:43.213Z,100.00
2022-11-02T21:03:28.319Z,100.00
2022-11-02T21:06:13.332Z,100.00
2022-11-02T21:09:01.371Z,100.00
2022-11-02T21:12:05.138Z,100.00
2022-11-02T21:14:50.327Z,100.00
2022-11-02T21:17:35.419Z,100.00
2022-11-02T21:20:33.604Z,100.00
2022-11-02T21:23:19.036Z,100.00
2022-11-02T21:26:06.702Z,100.00
2022-11-02T21:28:52.058Z,100.00
2022-11-02T21:31:36.935Z,100.00
2022-11-02T21:34:23.240Z,100.00
2022-11-02T21:37:08.288Z,100.00
2022-11-02T21:39:53.146Z,100.00
2022-11-02T21:42:38.074Z,100.00
2022-11-02T21:45:26.200Z,100.00
2022-11-02T21:48:11.459Z,100.00
2022-11-02T21:51:04.548Z,100.00
2022-11-02T21:53:50.705Z,100.00
2022-11-02T21:56:36.806Z,100.00
2022-11-02T21:59:21.894Z,100.00
2022-11-02T22:02:06.966Z,100.00
2022-11-02T22:04:54.156Z,100.00
2022-11-02T22:07:59.034Z,100.00
2022-11-02T22:10:44.400Z,100.00
2022-11-02T22:13:32.169Z,100.00
2022-11-02T22:16:25.018Z,100.00
2022-11-02T22:19:12.357Z,100.00
2022-11-02T22:21:59.002Z,100.00
2022-11-02T22:24:45.063Z,100.00
2022-11-02T22:27:29.887Z,100.00
2022-11-02T22:30:15.090Z,100.00
2022-11-02T22:33:00.238Z,100.00
2022-11-02T22:35:45.303Z,100.00
2022-11-02T22:38:50.991Z,100.00
2022-11-02T22:41:47.649Z,100.00
2022-11-02T22:44:32.816Z,100.00
2022-11-02T22:47:17.736Z,100.00
2022-11-02T22:50:02.884Z,100.00
2022-11-02T22:52:48.027Z,100.00
2022-11-02T22:55:33.151Z,100.00
2022-11-02T22:58:18.256Z,100.00
2022-11-02T23:01:04.438Z,100.00
2022-11-02T23:03:50.371Z,100.00
2022-11-02T23:06:35.389Z,100.00
2022-11-02T23:09:21.517Z,100.00
2022-11-02T23:12:06.605Z,100.00
2022-11-02T23:14:51.847Z,100.00
2022-11-02T23:17:37.057Z,100.00
2022-11-02T23:20:21.807Z,100.00
2022-11-02T23:23:25.332Z,100.00
2022-11-02T23:26:10.560Z,100.00
2022-11-02T23:29:14.018Z,100.00
2022-11-02T23:32:17.764Z,100.00
2022-11-02T23:35:21.716Z,100.00
2022-11-02T23:38:07.606Z,100.00
2022-11-02T23:40:55.701Z,100.00
2022-11-02T23:43:40.669Z,100.00
2022-11-02T23:46:25.593Z,100.00
2022-11-02T23:49:11.692Z,100.00
2022-11-02T23:52:15.574Z,100.00
2022-11-02T23:55:19.443Z,100.00
2022-11-02T23:58:04.732Z,100.00
